Time;durP1;ratioP1;P1;durP2;ratioP2;P2;SDS_P1;SDS_P2;PMS_P1;PMS_P2;Temp;Humidity;BMP_temperature;BMP_pressure;BME280_temperature;BME280_humidity;BME280_pressure;Samples;Min_cycle;Max_cycle;Signal;HPM_P1;HPM_P2
2021/04/10 00:00:53;;;;;;;0.60;0.60;;;11.50;99.90;;;;;;5034456;28;20241;-77
2021/04/10 00:03:18;;;;;;;1.80;1.70;;;11.40;99.90;;;;;;5035549;28;20168;-77
2021/04/10 00:05:44;;;;;;;1.35;1.20;;;11.30;99.90;;;;;;5035551;28;20274;-77
2021/04/10 00:08:09;;;;;;;1.40;1.30;;;11.40;99.90;;;;;;5035733;28;20164;-77
2021/04/10 00:10:35;;;;;;;1.88;1.77;;;11.40;99.90;;;;;;5035577;28;20187;-77
2021/04/10 00:13:02;;;;;;;1.25;1.15;;;11.40;99.90;;;;;;5035548;28;20160;-78
2021/04/10 00:15:29;;;;;;;1.27;1.23;;;11.50;99.90;;;;;;5035324;28;20171;-79
2021/04/10 00:17:55;;;;;;;2.55;1.00;;;11.50;99.90;;;;;;5035408;28;20179;-79
2021/04/10 00:20:22;;;;;;;1.80;1.30;;;11.40;99.90;;;;;;5035564;28;20161;-77
2021/04/10 00:22:49;;;;;;;1.38;1.27;;;11.50;99.90;;;;;;5035256;28;20167;-76
2021/04/10 00:25:15;;;;;;;1.35;1.15;;;11.30;99.90;;;;;;5035136;28;20305;-76
2021/04/10 00:27:42;;;;;;;4.03;1.52;;;11.10;99.90;;;;;;5035157;28;20164;-77
2021/04/10 00:30:10;;;;;;;0.93;0.93;;;11.30;99.90;;;;;;5035063;28;20176;-77
2021/04/10 00:32:36;;;;;;;3.22;1.35;;;11.40;99.90;;;;;;5033857;28;20283;-76
2021/04/10 00:35:02;;;;;;;1.30;0.98;;;11.30;99.90;;;;;;5033782;28;20171;-79
2021/04/10 00:37:27;;;;;;;1.52;0.68;;;11.30;99.90;;;;;;5033249;28;20721;-78
2021/04/10 00:39:53;;;;;;;1.95;1.75;;;11.30;99.90;;;;;;5034958;28;20159;-77
2021/04/10 00:42:19;;;;;;;2.63;2.35;;;11.40;99.90;;;;;;5034830;28;20255;-77
2021/04/10 00:44:44;;;;;;;1.80;1.67;;;11.40;99.90;;;;;;5033798;28;20171;-76
2021/04/10 00:47:10;;;;;;;2.78;2.03;;;11.40;99.90;;;;;;5033515;28;20605;-77
2021/04/10 00:49:36;;;;;;;1.75;1.05;;;11.20;99.90;;;;;;5034798;28;20156;-77
2021/04/10 00:52:03;;;;;;;1.38;1.27;;;11.20;99.90;;;;;;5034614;28;20283;-76
2021/04/10 00:54:28;;;;;;;2.85;2.58;;;11.40;99.90;;;;;;5034615;28;20216;-76
2021/04/10 00:56:54;;;;;;;0.98;0.98;;;11.50;99.90;;;;;;5033270;28;20191;-79
2021/04/10 00:59:20;;;;;;;2.30;1.83;;;11.30;99.90;;;;;;5034673;28;20163;-77
2021/04/10 01:01:46;;;;;;;1.42;1.20;;;11.30;99.90;;;;;;5034482;28;20179;-76
2021/04/10 01:04:13;;;;;;;1.90;1.50;;;11.40;99.90;;;;;;5034493;28;20175;-76
2021/04/10 01:06:38;;;;;;;1.45;1.33;;;11.50;99.90;;;;;;5034311;28;20183;-76
2021/04/10 01:09:04;;;;;;;4.25;1.42;;;11.60;99.90;;;;;;5034698;28;20164;-76
2021/04/10 01:11:53;;;;;;;14.90;3.13;;;11.60;99.90;;;;;;5032877;28;20562;-76
2021/04/10 01:14:44;;;;;;;1.75;1.65;;;11.40;99.90;;;;;;5034315;28;20707;-76
2021/04/10 01:17:21;;;;;;;2.22;2.03;;;11.40;99.90;;;;;;5034092;28;20253;-76
2021/04/10 01:20:04;;;;;;;1.08;1.08;;;11.40;99.90;;;;;;5034222;28;20163;-76
2021/04/10 01:22:45;;;;;;;2.60;2.08;;;11.40;99.90;;;;;;5034182;28;20164;-76
2021/04/10 01:25:16;;;;;;;1.48;1.38;;;11.50;99.90;;;;;;5034049;28;20200;-76
2021/04/10 01:27:56;;;;;;;1.08;0.98;;;11.40;99.90;;;;;;5034055;28;20168;-76
2021/04/10 01:30:24;;;;;;;1.33;1.00;;;11.40;99.90;;;;;;5032443;28;20215;-76
2021/04/10 01:33:07;;;;;;;2.78;1.58;;;11.30;99.90;;;;;;5034200;28;20172;-76
2021/04/10 01:35:43;;;;;;;2.05;0.93;;;11.20;99.90;;;;;;5033856;28;20261;-79
2021/04/10 01:38:15;;;;;;;0.55;0.55;;;11.20;99.90;;;;;;5033757;28;20171;-77
2021/04/10 01:40:42;;;;;;;1.52;1.17;;;11.20;99.90;;;;;;5033771;28;20171;-76
2021/04/10 01:43:08;;;;;;;1.83;1.33;;;11.50;99.90;;;;;;5033703;28;20156;-78
2021/04/10 01:45:35;;;;;;;1.45;1.23;;;11.60;99.90;;;;;;5033735;28;20184;-77
2021/04/10 01:48:10;;;;;;;3.03;2.13;;;11.50;99.90;;;;;;5033287;28;20632;-76
2021/04/10 01:50:37;;;;;;;1.08;1.08;;;11.60;99.90;;;;;;5033391;28;20278;-76
2021/04/10 01:53:05;;;;;;;1.13;1.13;;;11.40;99.90;;;;;;5033614;28;20490;-77
2021/04/10 01:55:31;;;;;;;1.30;1.20;;;11.00;99.90;;;;;;5032140;28;20230;-76
2021/04/10 01:57:57;;;;;;;3.13;1.13;;;10.90;99.90;;;;;;5033474;28;20178;-76
2021/04/10 02:00:26;;;;;;;1.88;1.20;;;10.90;99.90;;;;;;5033518;28;20175;-76
2021/04/10 02:02:54;;;;;;;1.02;1.02;;;10.90;99.90;;;;;;5033503;28;20631;-76
2021/04/10 02:05:21;;;;;;;1.95;1.83;;;11.10;99.90;;;;;;5033364;28;20153;-75
2021/04/10 02:07:49;;;;;;;1.25;1.25;;;11.20;99.90;;;;;;5033311;28;20199;-77
2021/04/10 02:10:17;;;;;;;3.55;2.00;;;11.30;99.90;;;;;;5033394;28;20511;-76
2021/04/10 02:12:46;;;;;;;15.10;1.60;;;11.20;99.90;;;;;;5033293;28;20191;-76
2021/04/10 02:15:13;;;;;;;2.10;1.85;;;11.10;99.90;;;;;;5031806;28;20595;-76
2021/04/10 02:17:39;;;;;;;1.17;1.17;;;11.40;99.90;;;;;;5033387;28;20168;-76
2021/04/10 02:20:12;;;;;;;1.85;1.63;;;11.60;99.90;;;;;;5031965;28;20161;-76
2021/04/10 02:22:43;;;;;;;2.67;1.77;;;11.30;99.90;;;;;;5033196;28;20243;-76
2021/04/10 02:25:10;;;;;;;0.65;0.65;;;11.50;99.90;;;;;;5033097;28;20168;-76
2021/04/10 02:27:36;;;;;;;1.23;1.23;;;11.70;99.90;;;;;;5033036;28;20195;-77
2021/04/10 02:30:03;;;;;;;1.63;1.52;;;11.70;99.90;;;;;;5032947;28;20176;-77
2021/04/10 02:32:47;;;;;;;4.60;2.03;;;11.50;99.90;;;;;;5033337;28;20341;-77
2021/04/10 02:35:18;;;;;;;1.10;1.10;;;11.40;99.90;;;;;;5032932;28;20176;-76
2021/04/10 02:37:47;;;;;;;1.63;1.05;;;11.40;99.90;;;;;;5033095;28;20179;-78
2021/04/10 02:40:16;;;;;;;1.30;1.27;;;11.40;99.90;;;;;;5032933;28;20160;-76
2021/04/10 02:42:46;;;;;;;1.35;1.25;;;11.10;99.90;;;;;;5032978;28;20187;-76
2021/04/10 02:45:14;;;;;;;0.52;0.52;;;10.80;99.90;;;;;;5032880;28;20163;-76
2021/04/10 02:47:43;;;;;;;1.65;1.55;;;10.60;99.90;;;;;;5032936;28;20518;-75
2021/04/10 02:50:10;;;;;;;1.33;0.90;;;10.60;99.90;;;;;;5032869;28;20145;-76
2021/04/10 02:52:40;;;;;;;5.10;1.42;;;10.40;99.90;;;;;;5032758;28;20200;-77
2021/04/10 02:55:09;;;;;;;2.70;2.35;;;10.20;99.90;;;;;;5032903;28;20176;-77
2021/04/10 02:57:35;;;;;;;1.58;1.33;;;10.20;99.90;;;;;;5032938;28;20518;-74
2021/04/10 03:00:05;;;;;;;3.90;2.45;;;10.20;99.90;;;;;;5033889;28;20274;-76
2021/04/10 03:02:32;;;;;;;2.90;0.68;;;10.20;99.90;;;;;;5036768;28;20149;-76
2021/04/10 03:04:58;;;;;;;0.95;0.95;;;9.90;99.90;;;;;;5036762;28;20164;-76
2021/04/10 03:07:24;;;;;;;4.40;1.05;;;9.70;99.90;;;;;;5036671;28;20191;-76
2021/04/10 03:09:51;;;;;;;3.72;1.70;;;9.80;99.90;;;;;;5036599;28;20171;-76
2021/04/10 03:12:21;;;;;;;4.55;1.50;;;9.70;99.90;;;;;;5036477;28;20199;-76
2021/04/10 03:14:48;;;;;;;1.75;1.65;;;9.60;99.90;;;;;;5036553;28;20631;-76
2021/04/10 03:17:20;;;;;;;1.30;1.17;;;9.70;99.90;;;;;;5036406;28;20238;-76
2021/04/10 03:19:46;;;;;;;2.13;1.55;;;9.60;99.90;;;;;;5036394;28;20164;-76
2021/04/10 03:22:15;;;;;;;3.20;2.92;;;9.60;99.90;;;;;;5036474;28;20520;-76
2021/04/10 03:24:40;;;;;;;1.92;1.83;;;9.80;99.90;;;;;;5036379;28;20620;-75
2021/04/10 03:27:06;;;;;;;2.55;2.30;;;9.80;99.90;;;;;;5035016;28;20303;-76
2021/04/10 03:29:34;;;;;;;2.92;2.65;;;9.80;99.90;;;;;;5036244;28;20164;-76
2021/04/10 03:32:01;;;;;;;2.20;1.98;;;9.50;99.90;;;;;;5034719;28;20246;-76
2021/04/10 03:34:28;;;;;;;3.50;1.42;;;9.40;99.90;;;;;;5036243;28;20221;-75
2021/04/10 03:36:54;;;;;;;4.50;2.92;;;9.40;99.90;;;;;;5036077;28;20219;-76
2021/04/10 03:39:20;;;;;;;2.08;1.42;;;9.20;99.90;;;;;;5036039;28;20158;-76
2021/04/10 03:41:46;;;;;;;1.63;1.55;;;9.20;99.90;;;;;;5036084;28;20253;-76
2021/04/10 03:44:12;;;;;;;8.23;4.05;;;9.10;99.90;;;;;;5035955;28;20206;-76
2021/04/10 03:46:38;;;;;;;3.33;1.70;;;9.00;99.90;;;;;;5035931;28;20196;-77
2021/04/10 03:49:05;;;;;;;3.13;1.45;;;9.10;99.90;;;;;;5035894;28;20164;-76
2021/04/10 03:51:31;;;;;;;3.75;1.92;;;9.00;99.90;;;;;;5035713;28;20184;-76
2021/04/10 03:53:57;;;;;;;3.17;2.90;;;9.20;99.90;;;;;;5035792;28;20175;-76
2021/04/10 03:56:22;;;;;;;2.05;1.95;;;9.40;99.90;;;;;;5035803;28;20191;-76
2021/04/10 03:58:48;;;;;;;3.75;1.98;;;9.50;99.90;;;;;;5035708;28;20156;-76
2021/04/10 04:01:13;;;;;;;2.78;2.47;;;9.50;99.90;;;;;;5035803;28;20266;-76
2021/04/10 04:03:39;;;;;;;6.07;2.15;;;9.40;99.90;;;;;;5035521;28;20513;-76
2021/04/10 04:06:05;;;;;;;3.08;2.08;;;9.50;99.90;;;;;;5035786;28;20200;-76
2021/04/10 04:08:30;;;;;;;26.17;2.25;;;9.40;99.90;;;;;;5035736;28;20512;-76
2021/04/10 04:10:56;;;;;;;1.67;1.60;;;9.60;99.90;;;;;;5035201;28;20208;-76
2021/04/10 04:13:21;;;;;;;2.47;2.25;;;9.40;99.90;;;;;;5033526;28;20197;-76
2021/04/10 04:15:47;;;;;;;5.55;2.08;;;9.40;99.90;;;;;;5035341;28;20184;-76
2021/04/10 04:18:12;;;;;;;1.20;1.10;;;9.40;99.90;;;;;;5035465;28;20164;-77
2021/04/10 04:20:38;;;;;;;5.10;4.10;;;9.40;99.90;;;;;;5034009;28;20238;-76
2021/04/10 04:23:04;;;;;;;2.80;2.03;;;9.40;99.90;;;;;;5034008;28;20164;-76
2021/04/10 04:25:29;;;;;;;2.47;2.35;;;9.50;99.90;;;;;;5035061;28;20171;-76
2021/04/10 04:27:55;;;;;;;1.98;1.85;;;9.50;99.90;;;;;;5035203;28;20530;-75
2021/04/10 04:30:21;;;;;;;2.90;2.70;;;9.50;99.90;;;;;;5035147;28;20295;-76
2021/04/10 04:32:47;;;;;;;0.80;0.80;;;9.60;99.90;;;;;;5033996;28;20199;-75
2021/04/10 04:35:12;;;;;;;15.68;1.83;;;9.30;99.90;;;;;;5034874;28;20164;-76
2021/04/10 04:37:40;;;;;;;5.15;4.10;;;9.40;99.90;;;;;;5034931;28;20251;-76
2021/04/10 04:40:07;;;;;;;5.70;3.10;;;9.20;99.90;;;;;;5034886;28;20160;-76
2021/04/10 04:42:33;;;;;;;3.95;1.65;;;9.10;99.90;;;;;;5033671;28;20245;-76
2021/04/10 04:44:59;;;;;;;8.18;4.63;;;8.90;99.90;;;;;;5034857;28;20168;-76
2021/04/10 04:47:24;;;;;;;8.50;3.28;;;9.00;99.90;;;;;;5034789;28;20188;-76
2021/04/10 04:49:50;;;;;;;2.38;2.28;;;9.00;99.90;;;;;;5034757;28;20188;-76
2021/04/10 04:52:15;;;;;;;1.83;1.73;;;9.00;99.90;;;;;;5034598;28;20258;-76
2021/04/10 04:54:41;;;;;;;3.97;2.80;;;8.80;99.90;;;;;;5033358;28;20164;-78
2021/04/10 04:57:06;;;;;;;1.40;1.30;;;8.80;99.90;;;;;;5033347;28;20192;-77
2021/04/10 04:59:32;;;;;;;2.15;2.05;;;8.90;99.90;;;;;;5034551;28;20749;-77
2021/04/10 05:01:58;;;;;;;2.42;1.35;;;8.80;99.90;;;;;;5033238;28;20176;-76
2021/04/10 05:04:23;;;;;;;2.15;2.05;;;8.90;99.90;;;;;;5034614;28;20639;-77
2021/04/10 05:06:49;;;;;;;1.48;1.38;;;9.10;99.90;;;;;;5034343;28;20191;-78
2021/04/10 05:09:14;;;;;;;2.00;1.80;;;9.30;99.90;;;;;;5034455;28;20647;-79
2021/04/10 05:11:40;;;;;;;11.80;3.58;;;9.30;99.90;;;;;;5034253;28;20200;-77
2021/04/10 05:14:06;;;;;;;3.13;2.70;;;9.20;99.90;;;;;;5034313;28;20261;-78
2021/04/10 05:16:31;;;;;;;2.42;1.88;;;8.90;99.90;;;;;;5034229;28;20187;-77
2021/04/10 05:18:57;;;;;;;6.70;2.10;;;9.10;99.90;;;;;;5032903;28;20282;-77
2021/04/10 05:21:23;;;;;;;3.47;2.50;;;9.20;99.90;;;;;;5034208;28;20247;-75
2021/04/10 05:23:49;;;;;;;1.48;1.38;;;9.20;99.90;;;;;;5034030;28;20164;-77
2021/04/10 05:26:14;;;;;;;5.05;2.38;;;9.00;99.90;;;;;;5034014;28;20567;-78
2021/04/10 05:28:40;;;;;;;3.40;2.55;;;9.00;99.90;;;;;;5033903;28;20168;-77
2021/04/10 05:31:06;;;;;;;3.72;2.05;;;9.10;99.90;;;;;;5033796;28;20714;-76
2021/04/10 05:33:32;;;;;;;2.25;2.05;;;9.00;99.90;;;;;;5033831;28;20167;-77
2021/04/10 05:35:58;;;;;;;2.75;2.53;;;9.20;99.90;;;;;;5032510;28;20196;-79
2021/04/10 05:38:25;;;;;;;2.70;2.50;;;9.30;99.90;;;;;;5032542;28;20175;-77
2021/04/10 05:40:51;;;;;;;2.90;2.65;;;9.10;99.90;;;;;;5034004;28;20160;-78
2021/04/10 05:43:16;;;;;;;3.00;2.47;;;9.10;99.90;;;;;;5033767;28;20612;-78
2021/04/10 05:45:42;;;;;;;2.17;1.85;;;9.00;99.90;;;;;;5033666;28;20257;-78
2021/04/10 05:48:08;;;;;;;9.10;3.13;;;9.20;99.90;;;;;;5033544;28;20163;-76
2021/04/10 05:50:33;;;;;;;3.03;2.78;;;9.10;99.90;;;;;;5033696;28;20175;-76
2021/04/10 05:52:59;;;;;;;7.30;2.75;;;8.90;99.90;;;;;;5033562;28;20156;-76
2021/04/10 05:55:25;;;;;;;4.38;2.67;;;9.00;99.90;;;;;;5033419;28;20245;-76
2021/04/10 05:57:50;;;;;;;1.27;1.25;;;8.90;99.90;;;;;;5033508;28;20172;-76
2021/04/10 06:00:16;;;;;;;2.30;1.70;;;8.90;99.90;;;;;;5033537;28;20180;-77
2021/04/10 06:02:42;;;;;;;1.20;1.20;;;8.90;99.90;;;;;;5033462;28;20160;-78
2021/04/10 06:05:08;;;;;;;3.20;2.65;;;8.90;99.90;;;;;;5033558;28;20195;-77
2021/04/10 06:07:34;;;;;;;1.65;1.50;;;8.90;99.90;;;;;;5033188;28;20192;-74
2021/04/10 06:09:59;;;;;;;2.30;1.73;;;8.90;99.90;;;;;;5032440;28;20222;-76
2021/04/10 06:12:25;;;;;;;3.40;2.65;;;8.70;99.90;;;;;;5032084;28;20198;-78
2021/04/10 06:14:50;;;;;;;3.30;2.97;;;8.70;99.90;;;;;;5033338;28;20243;-76
2021/04/10 06:17:16;;;;;;;8.13;2.95;;;8.80;99.90;;;;;;5032242;28;20713;-76
2021/04/10 06:19:42;;;;;;;4.43;2.72;;;8.80;99.90;;;;;;5032237;28;20163;-76
2021/04/10 06:22:08;;;;;;;9.73;2.33;;;9.00;99.90;;;;;;5032709;28;20690;-76
2021/04/10 06:24:33;;;;;;;1.13;1.10;;;9.00;99.90;;;;;;5032889;28;20197;-76
2021/04/10 06:26:59;;;;;;;9.95;2.30;;;9.00;99.90;;;;;;5032884;28;20183;-77
2021/04/10 06:29:25;;;;;;;3.17;1.75;;;9.10;99.90;;;;;;5033015;28;20227;-76
2021/04/10 06:31:51;;;;;;;4.40;3.13;;;9.20;99.90;;;;;;5032624;28;20234;-77
2021/04/10 06:34:16;;;;;;;1.40;1.30;;;9.20;99.90;;;;;;5032625;28;20164;-77
2021/04/10 06:36:42;;;;;;;8.20;4.30;;;9.20;99.90;;;;;;5032854;28;20184;-76
2021/04/10 06:39:07;;;;;;;4.60;3.13;;;9.30;99.90;;;;;;5031320;28;20202;-76
2021/04/10 06:41:38;;;;;;;6.65;2.08;;;9.30;99.90;;;;;;5032917;28;20627;-76
2021/04/10 06:44:04;;;;;;;22.27;2.17;;;9.30;99.90;;;;;;5032972;28;20374;-76
2021/04/10 06:46:34;;;;;;;1.33;1.23;;;9.40;99.90;;;;;;5032468;28;20267;-76
2021/04/10 06:49:01;;;;;;;6.78;2.50;;;9.60;99.90;;;;;;5032725;28;20636;-76
2021/04/10 06:51:27;;;;;;;3.75;2.92;;;9.60;99.90;;;;;;5032316;28;20191;-76
2021/04/10 06:53:54;;;;;;;1.85;1.67;;;9.60;99.90;;;;;;5033770;28;20176;-76
2021/04/10 06:56:31;;;;;;;5.03;2.78;;;9.60;99.90;;;;;;5038176;28;20607;-76
2021/04/10 06:59:09;;;;;;;2.55;2.38;;;9.70;99.90;;;;;;5022533;28;20203;-75
2021/04/10 07:01:35;;;;;;;2.50;2.30;;;9.70;99.90;;;;;;5015483;28;20215;-76
2021/04/10 07:04:01;;;;;;;3.33;3.03;;;9.50;99.90;;;;;;5029421;28;20168;-76
2021/04/10 07:06:27;;;;;;;3.97;2.58;;;9.60;99.90;;;;;;5032936;28;20226;-77
2021/04/10 07:08:54;;;;;;;1.58;1.48;;;9.60;99.90;;;;;;5032849;28;20241;-77
2021/04/10 07:11:21;;;;;;;5.25;2.65;;;9.30;99.90;;;;;;5031390;28;20199;-76
2021/04/10 07:13:46;;;;;;;11.23;4.18;;;9.30;99.90;;;;;;5032590;28;20309;-76
2021/04/10 07:16:12;;;;;;;1.38;1.30;;;8.80;99.90;;;;;;5032135;28;20259;-78
2021/04/10 07:18:39;;;;;;;1.23;1.17;;;8.60;99.90;;;;;;5020880;28;20168;-76
2021/04/10 07:21:18;;;;;;;2.28;1.65;;;8.70;99.90;;;;;;5021487;28;20176;-76
2021/04/10 07:23:48;;;;;;;4.10;1.50;;;8.70;99.90;;;;;;5021236;28;20164;-77
2021/04/10 07:26:15;;;;;;;1.90;1.20;;;8.70;99.90;;;;;;5021655;28;20263;-76
2021/04/10 07:28:40;;;;;;;1.98;1.88;;;8.80;99.90;;;;;;5025248;28;20251;-76
2021/04/10 07:31:12;;;;;;;5.68;4.05;;;8.80;99.90;;;;;;5018813;28;20315;-76
2021/04/10 07:33:40;;;;;;;2.90;2.70;;;8.80;99.90;;;;;;5012838;28;20153;-79
2021/04/10 07:36:08;;;;;;;3.60;1.63;;;8.70;99.90;;;;;;5024899;28;20267;-79
2021/04/10 07:38:37;;;;;;;1.15;1.15;;;8.70;99.90;;;;;;5022430;28;20251;-77
2021/04/10 07:41:17;;;;;;;1.77;1.65;;;8.90;99.90;;;;;;5019167;28;20171;-77
2021/04/10 07:43:44;;;;;;;1.48;1.42;;;8.80;99.90;;;;;;5018000;28;20252;-76
2021/04/10 07:46:20;;;;;;;3.75;2.42;;;8.80;99.90;;;;;;5012403;28;20633;-77
2021/04/10 07:49:00;;;;;;;1.73;1.63;;;8.90;99.90;;;;;;5023683;28;20243;-77
2021/04/10 07:51:27;;;;;;;2.55;1.50;;;9.10;99.90;;;;;;5021083;28;20204;-76
2021/04/10 07:53:53;;;;;;;3.28;2.10;;;9.10;99.90;;;;;;5014611;28;20532;-76
2021/04/10 07:56:19;;;;;;;7.20;1.85;;;9.10;99.90;;;;;;5015850;28;20271;-76
2021/04/10 07:58:45;;;;;;;5.50;2.50;;;9.10;99.90;;;;;;5015763;28;20664;-76
2021/04/10 08:01:11;;;;;;;18.90;2.25;;;9.00;99.90;;;;;;5014528;28;20199;-76
2021/04/10 08:03:38;;;;;;;2.40;2.20;;;9.00;99.90;;;;;;5015909;28;20663;-77
2021/04/10 08:06:04;;;;;;;22.48;2.13;;;8.80;99.90;;;;;;5015872;28;20231;-77
2021/04/10 08:08:30;;;;;;;3.15;1.75;;;8.70;99.90;;;;;;5014482;28;20176;-76
2021/04/10 08:11:02;;;;;;;2.55;2.03;;;8.80;99.90;;;;;;5016124;28;20220;-77
2021/04/10 08:13:29;;;;;;;2.20;2.05;;;8.80;99.90;;;;;;5015889;28;20164;-81
2021/04/10 08:16:27;;;;;;;7.22;2.55;;;8.80;99.90;;;;;;5014644;28;20195;-76
2021/04/10 08:18:55;;;;;;;2.95;1.75;;;9.00;99.90;;;;;;4992917;28;20645;-77
2021/04/10 08:21:35;;;;;;;2.13;1.92;;;9.20;99.90;;;;;;5039130;28;21311;-76
2021/04/10 08:24:04;;;;;;;1.08;1.08;;;9.10;99.90;;;;;;5043855;28;20179;-78
2021/04/10 08:26:30;;;;;;;1.88;1.55;;;9.10;99.90;;;;;;5037219;28;20341;-77
2021/04/10 08:28:57;;;;;;;6.13;1.98;;;9.20;99.90;;;;;;5034888;28;20709;-75
2021/04/10 08:31:23;;;;;;;6.47;1.98;;;9.10;99.90;;;;;;5034937;28;20295;-77
2021/04/10 08:33:48;;;;;;;1.95;1.85;;;9.30;99.90;;;;;;5034602;28;20246;-80
2021/04/10 08:36:14;;;;;;;1.35;1.33;;;9.30;99.90;;;;;;5031931;28;20279;-77
2021/04/10 08:38:42;;;;;;;5.55;2.38;;;9.30;99.90;;;;;;5044620;28;20175;-78
2021/04/10 08:41:10;;;;;;;2.00;1.88;;;9.20;99.90;;;;;;5046540;28;20297;-77
2021/04/10 08:43:58;;;;;;;2.22;1.60;;;9.30;99.90;;;;;;5053151;28;20179;-76
2021/04/10 08:46:27;;;;;;;1.85;1.75;;;9.30;99.90;;;;;;5052760;28;20203;-80
2021/04/10 08:48:57;;;;;;;4.50;1.98;;;9.30;99.90;;;;;;5054519;28;20225;-76
2021/04/10 08:51:25;;;;;;;5.15;2.25;;;9.00;99.90;;;;;;5054038;28;20244;-76
2021/04/10 08:53:53;;;;;;;9.75;3.88;;;9.20;99.90;;;;;;5054585;28;20203;-75
2021/04/10 08:56:23;;;;;;;2.38;2.22;;;9.00;99.90;;;;;;5054408;28;20240;-75
2021/04/10 08:58:49;;;;;;;1.65;1.55;;;9.10;99.90;;;;;;5054187;28;20221;-75
2021/04/10 09:01:23;;;;;;;3.80;2.40;;;9.10;99.90;;;;;;5054457;28;20178;-75
2021/04/10 09:03:51;;;;;;;3.40;3.15;;;9.10;99.90;;;;;;5054424;28;20619;-76
2021/04/10 09:06:23;;;;;;;1.83;1.73;;;9.20;99.90;;;;;;5054367;28;20528;-76
2021/04/10 09:08:49;;;;;;;2.05;1.95;;;9.30;99.90;;;;;;5052982;28;20175;-77
2021/04/10 09:11:19;;;;;;;3.20;2.22;;;9.40;99.90;;;;;;5054302;28;20201;-76
2021/04/10 09:13:48;;;;;;;2.55;2.00;;;9.60;99.90;;;;;;5052778;28;20179;-77
2021/04/10 09:16:38;;;;;;;1.50;1.40;;;9.40;99.90;;;;;;5054213;28;20258;-79
2021/04/10 09:19:10;;;;;;;3.63;2.38;;;9.40;99.90;;;;;;5034306;28;20203;-78
2021/04/10 09:21:55;;;;;;;2.63;2.42;;;9.40;99.90;;;;;;5033962;28;20172;-79
2021/04/10 09:24:41;;;;;;;1.95;1.25;;;9.20;99.90;;;;;;5033931;28;20171;-78
2021/04/10 09:27:19;;;;;;;6.40;1.65;;;9.40;99.90;;;;;;5034108;28;20673;-79
2021/04/10 09:29:45;;;;;;;4.88;1.75;;;9.30;99.90;;;;;;5034021;28;20246;-79
2021/04/10 09:32:11;;;;;;;3.00;2.17;;;9.40;99.90;;;;;;5032006;28;20303;-78
2021/04/10 09:34:54;;;;;;;7.88;3.38;;;9.30;99.90;;;;;;5030965;28;20167;-79
2021/04/10 09:37:19;;;;;;;7.75;2.38;;;9.30;99.90;;;;;;5024133;28;20654;-79
2021/04/10 09:39:59;;;;;;;9.10;2.92;;;9.30;99.90;;;;;;5021200;28;20223;-78
2021/04/10 09:42:55;;;;;;;3.08;2.92;;;9.40;99.90;;;;;;5029205;28;20179;-78
2021/04/10 09:45:23;;;;;;;1.88;1.77;;;9.30;99.90;;;;;;5029553;28;20172;-78
2021/04/10 09:48:04;;;;;;;1.80;1.70;;;9.30;99.90;;;;;;5031704;28;20233;-78
2021/04/10 09:50:36;;;;;;;3.05;2.63;;;9.40;99.90;;;;;;5038506;28;20176;-78
2021/04/10 09:53:13;;;;;;;2.85;2.65;;;9.50;99.90;;;;;;5032059;28;20203;-77
2021/04/10 09:55:44;;;;;;;3.83;2.33;;;9.60;99.90;;;;;;5031449;28;20547;-79
2021/04/10 09:58:15;;;;;;;3.17;2.85;;;9.70;99.90;;;;;;5051315;28;20182;-79
2021/04/10 10:00:49;;;;;;;1.85;1.75;;;9.90;99.90;;;;;;5051535;28;20183;-78
2021/04/10 10:03:17;;;;;;;18.98;3.38;;;9.80;99.90;;;;;;5033896;28;20246;-78
2021/04/10 10:05:47;;;;;;;2.92;2.67;;;9.60;99.90;;;;;;5033182;28;20191;-78
2021/04/10 10:08:15;;;;;;;8.57;2.83;;;9.80;99.90;;;;;;5033144;28;20514;-80
2021/04/10 10:10:42;;;;;;;3.45;2.50;;;9.70;99.90;;;;;;5030972;28;20179;-79
2021/04/10 10:13:10;;;;;;;1.40;1.30;;;9.70;99.90;;;;;;5033690;28;20184;-80
2021/04/10 10:15:37;;;;;;;1.02;1.02;;;9.70;99.90;;;;;;5033124;28;20200;-78
2021/04/10 10:18:22;;;;;;;3.60;2.20;;;9.70;99.90;;;;;;5023438;28;20172;-79
2021/04/10 10:21:13;;;;;;;1.85;1.75;;;9.60;99.90;;;;;;5013405;28;20229;-78
2021/04/10 10:23:45;;;;;;;4.07;1.92;;;9.70;99.90;;;;;;5013345;28;20169;-77
2021/04/10 10:26:23;;;;;;;1.48;1.38;;;10.00;99.90;;;;;;5012097;28;20271;-79
2021/04/10 10:29:02;;;;;;;9.70;3.95;;;10.30;99.90;;;;;;5023535;28;20175;-78
2021/04/10 10:31:49;;;;;;;2.38;2.17;;;10.30;99.90;;;;;;5011844;28;20223;-78
2021/04/10 10:34:22;;;;;;;2.85;2.10;;;10.30;99.90;;;;;;5013179;28;20530;-77
2021/04/10 10:36:49;;;;;;;2.22;2.13;;;10.30;99.90;;;;;;5013073;28;20267;-77
2021/04/10 10:39:29;;;;;;;2.92;2.70;;;10.30;99.90;;;;;;5013517;28;20160;-77
2021/04/10 10:41:56;;;;;;;4.90;2.58;;;10.20;99.90;;;;;;5012269;28;20644;-78
2021/04/10 10:44:22;;;;;;;6.63;3.15;;;10.20;99.90;;;;;;5013153;28;20203;-76
2021/04/10 10:47:02;;;;;;;3.60;2.85;;;10.00;99.90;;;;;;5012940;28;20223;-79
2021/04/10 10:49:27;;;;;;;1.92;1.83;;;10.10;99.90;;;;;;5013388;28;20181;-78
2021/04/10 10:51:53;;;;;;;2.08;1.88;;;10.10;99.90;;;;;;5013127;28;20242;-78
2021/04/10 10:54:28;;;;;;;2.38;1.90;;;10.20;99.90;;;;;;5013105;28;20164;-77
2021/04/10 10:56:53;;;;;;;3.55;1.48;;;10.20;99.90;;;;;;5013158;28;20187;-77
2021/04/10 10:59:19;;;;;;;2.50;1.58;;;10.20;99.90;;;;;;5013059;28;20157;-77
2021/04/10 11:01:45;;;;;;;3.13;2.92;;;10.30;99.90;;;;;;5012755;28;20184;-76
2021/04/10 11:04:19;;;;;;;1.63;1.58;;;10.40;99.90;;;;;;5011462;28;20686;-76
2021/04/10 11:06:47;;;;;;;3.00;1.27;;;10.50;99.90;;;;;;5011456;28;20192;-77
2021/04/10 11:09:24;;;;;;;1.65;1.55;;;10.50;99.90;;;;;;5012844;28;20172;-76
2021/04/10 11:11:52;;;;;;;2.70;2.50;;;10.40;99.90;;;;;;5012944;28;20200;-77
2021/04/10 11:14:25;;;;;;;1.67;1.60;;;10.30;99.90;;;;;;5012957;28;20176;-76
2021/04/10 11:16:51;;;;;;;2.70;2.55;;;10.20;99.90;;;;;;5041397;28;20210;-75
2021/04/10 11:19:35;;;;;;;2.83;1.70;;;10.20;99.90;;;;;;5052729;28;20159;-77
2021/04/10 11:22:06;;;;;;;3.50;3.20;;;10.20;99.90;;;;;;5054591;28;20171;-77
2021/04/10 11:24:40;;;;;;;2.30;1.65;;;10.30;99.90;;;;;;5056162;28;20193;-77
2021/04/10 11:27:25;;;;;;;10.52;3.50;;;10.20;99.90;;;;;;5056195;28;20195;-76
2021/04/10 11:30:03;;;;;;;2.15;1.55;;;10.40;99.90;;;;;;5056152;28;20179;-78
2021/04/10 11:32:40;;;;;;;1.50;1.40;;;10.60;99.90;;;;;;5055828;28;20508;-80
2021/04/10 11:35:07;;;;;;;1.58;1.48;;;10.70;99.90;;;;;;5051008;28;20229;-76
2021/04/10 11:37:33;;;;;;;4.47;3.40;;;10.80;99.90;;;;;;5049021;28;20565;-78
2021/04/10 11:40:06;;;;;;;1.98;1.05;;;10.70;99.90;;;;;;5056094;28;20151;-76
2021/04/10 11:42:37;;;;;;;2.15;2.05;;;10.50;99.90;;;;;;5055807;28;20174;-77
2021/04/10 11:45:10;;;;;;;7.82;3.00;;;10.70;99.90;;;;;;5056055;28;20172;-76
2021/04/10 11:47:40;;;;;;;1.77;1.65;;;10.70;99.90;;;;;;5055927;28;20183;-77
2021/04/10 11:50:10;;;;;;;4.05;2.20;;;10.80;99.90;;;;;;5055312;28;20462;-76
2021/04/10 11:52:37;;;;;;;1.17;1.17;;;10.80;99.90;;;;;;5055332;28;20199;-76
2021/04/10 11:55:06;;;;;;;2.00;1.90;;;10.70;99.90;;;;;;5054234;28;20256;-77
2021/04/10 11:57:34;;;;;;;4.15;2.70;;;10.90;99.90;;;;;;5054393;28;20572;-80
2021/04/10 12:02:32;;;;;;;1.00;1.00;;;11.00;99.90;;;;;;5056889;28;20207;-78
2021/04/10 12:04:58;;;;;;;0.85;0.85;;;11.10;99.90;;;;;;5057742;28;20171;-78
2021/04/10 12:07:23;;;;;;;1.38;1.25;;;11.40;99.90;;;;;;5056318;28;20608;-77
2021/04/10 12:09:50;;;;;;;1.65;1.30;;;11.50;99.90;;;;;;5055922;28;20174;-77
2021/04/10 12:12:16;;;;;;;2.03;1.30;;;11.30;99.90;;;;;;5055760;28;20206;-78
2021/04/10 12:14:42;;;;;;;1.35;1.25;;;11.30;99.90;;;;;;5055400;28;20167;-77
2021/04/10 12:17:12;;;;;;;1.35;0.85;;;11.30;99.90;;;;;;5055191;28;20194;-77
2021/04/10 12:19:37;;;;;;;0.95;0.88;;;11.30;99.90;;;;;;5055352;28;20155;-77
2021/04/10 12:22:03;;;;;;;2.10;0.88;;;11.30;99.90;;;;;;5055065;28;20171;-77
2021/04/10 12:24:29;;;;;;;0.50;0.50;;;11.40;99.90;;;;;;5055416;28;20167;-77
2021/04/10 12:26:57;;;;;;;0.73;0.73;;;11.20;99.90;;;;;;5053796;28;20187;-79
2021/04/10 12:29:24;;;;;;;0.95;0.90;;;11.10;99.90;;;;;;5055242;28;20160;-78
2021/04/10 12:31:50;;;;;;;0.70;0.70;;;11.10;99.90;;;;;;5053287;28;20207;-76
2021/04/10 12:34:15;;;;;;;1.20;1.10;;;11.20;99.90;;;;;;5063977;28;20259;-78
2021/04/10 12:36:41;;;;;;;1.05;1.05;;;11.30;99.90;;;;;;5070135;28;20198;-78
2021/04/10 12:39:07;;;;;;;2.60;2.25;;;11.20;99.90;;;;;;5074565;28;20200;-77
2021/04/10 12:41:32;;;;;;;1.13;1.02;;;11.20;99.90;;;;;;5074610;28;20178;-77
2021/04/10 12:43:58;;;;;;;1.52;1.42;;;11.20;99.90;;;;;;5075047;28;20170;-79
2021/04/10 12:46:24;;;;;;;0.65;0.65;;;11.20;99.90;;;;;;5074460;28;20193;-78
2021/04/10 12:48:49;;;;;;;0.85;0.85;;;11.30;99.90;;;;;;5074802;28;20162;-77
2021/04/10 12:51:15;;;;;;;0.45;0.45;;;11.60;99.90;;;;;;5074513;28;20210;-76
2021/04/10 12:53:41;;;;;;;0.50;0.50;;;11.70;99.90;;;;;;5074401;28;20265;-77
2021/04/10 12:56:08;;;;;;;2.35;1.88;;;11.60;99.90;;;;;;5074441;28;20183;-76
2021/04/10 12:58:34;;;;;;;0.80;0.80;;;11.60;99.90;;;;;;5074527;28;20163;-75
2021/04/10 13:00:59;;;;;;;1.08;0.93;;;11.70;99.90;;;;;;5074220;28;20381;-77
2021/04/10 13:03:25;;;;;;;1.52;1.42;;;11.80;99.90;;;;;;5074170;28;20583;-76